AirNav   Everest Fuels
 
 726 users online  

3TX9 Rafter J Airport
Burleson, Texas, USA

GOING TO BURLESON?


FAA INFORMATION EFFECTIVE 08 SEPTEMBER 2022

Location

FAA Identifier: 3TX9
Lat/Long: 32-31-39.4970N 097-16-51.0520W
32-31.658283N 097-16.850867W
32.5276381,-97.2808478
(estimated)
Elevation: 710 ft. / 216 m (estimated)
Variation: 07E (1985)
From city: 3 miles NW of BURLESON, TX
Time zone: UTC -5 (UTC -6 during Standard Time)
Zip code: 76028

Airport Operations

Airport use: Private use. Permission required prior to landing
Activation date: 06/1991
Control tower: no
ARTCC: FORT WORTH CENTER
FSS: FORT WORTH FLIGHT SERVICE STATION
Attendance: CONTINUOUS
Wind indicator: yes
Segmented circle: no

Airport Communications

WX AWOS-3PT at FWS (2.6 nm NW): 120.025 (817-426-4172)
WX ASOS at GKY (12 nm NE): 127.375 (817-557-0251)
WX AWOS-3 at CPT (13 nm SW): 119.525 (817-641-4135)
WX AWOS-3P at GPM (16 nm NE): 118.475 (972-606-1433)
WX ASOS at FTW (18 nm N): PHONE 817-740-3346
WX AWOS-3 at JWY (19 nm E): 119.575 (972-937-4747)

Nearby radio navigation aids

VOR radial/distance  VOR name  Freq  Var
FUZr187/22.3RANGER VORTAC115.7006E
TTTr205/23.8MAVERICK VOR/DME113.1006E
CVEr215/28.9COWBOY VOR/DME116.2006E
MQPr099/38.1MILLSAP VORTAC117.7009E

Airport Services

Fuel available: MOGAS

Runway Information

Runway 15/33

Dimensions: 2800 x 50 ft. / 853 x 15 m
Surface: turf
RUNWAY 15  RUNWAY 33
Traffic pattern: leftleft

Airport Ownership and Management from official FAA records

Ownership: Privately-owned
Owner: ROBERT W. SHERROD JR
1100 CR 602
BURLESON, TX 76028
Phone 817-295-1256
Manager: ROBERT W. SHERROD, JR.
1100 CR 602
BURLESON, TX 76028
Phone (817) 774-7803

Airport Operational Statistics

Aircraft based on the field: 2
Single engine airplanes: 2
    

Additional Remarks

FOR CD CTC REGIONAL APCH AT 972-615-2799.

Instrument Procedures

There are no published instrument procedures at 3TX9.

Some nearby airports with instrument procedures:

KFWS - Fort Worth Spinks Airport (3 nm NW)
KGKY - Arlington Municipal Airport (12 nm NE)
KCPT - Cleburne Regional Airport (13 nm SW)
KGPM - Grand Prairie Municipal Airport (16 nm NE)
50F - Bourland Field Airport (16 nm W)
KNFW - Fort Worth Naval Air Station JRB (Carswell Field) Airport (17 nm NW)
KFTW - Fort Worth Meacham International Airport (18 nm N)
KJWY - Mid-Way Regional Airport (19 nm E)
 
Loc | Ops | Rwys | IFR | FBO | Links
Com | Nav | Svcs | Stats | Notes

City of Fort Worth
 
Area around 3TX9 (Rafter J Airport)
 
Road maps at: MapQuest Bing Google
 
Aerial photo
No photo
 
Sectional chart

 
Airport distance calculator
Flying to Rafter J Airport? Find the distance to fly.

From to 3TX9

Sunrise and sunset
Times for 04-Oct-2022
 Local
(UTC-5)
 Zulu
(UTC)
Morning civil twilight07:0212:02
Sunrise07:2612:26
Sunset19:1000:10
Evening civil twilight19:3400:34

Current date and time
Zulu (UTC)  04-Oct-2022 06:39:55
Local (UTC-5)  04-Oct-2022 01:39:55
 
METAR
KFWS 
3nm N 
040615Z AUTO 00000KT 10SM CLR 13/09 A3013 RMK AO2 T01340094
KGKY 
12nm NE 
040553Z AUTO 00000KT 10SM CLR 14/11 A3011 RMK AO2 SLP190 T01390111 10267 20139 402940094 $
KCPT 
13nm SW 
040615Z AUTO 00000KT 10SM CLR 18/08 A3013 RMK A01
KGPM 
16nm NE 
040615Z AUTO 00000KT 10SM CLR 20/08 A3013 RMK AO2 T02030084
KNFW 
17nm NW 
040352Z 29009KT 10SM CLR 24/14 A3013 RMK AO2 SLP186 T02330133
KFTW 
19nm N 
040553Z 00000KT 10SM CLR 18/11 A3011 RMK AO2 SLP189 60000 T01830106 10261 20183 402890122 58004
KJWY 
19nm E 
040615Z AUTO 00000KT 10SM SCT110 16/10 A3013 RMK AO2 T01570095
TAF
KGKY 
12nm NE 
040529Z 0406/0506 12007KT P6SM FEW250
KNFW 
17nm NW 
0323/0423 VRB06KT 9999 SKC QNH3002INS AUTOMATED SENSOR METWATCH 0404 TIL 0411 T14/0412Z T29/0422Z FN20048
KFTW 
19nm N 
040529Z 0406/0506 12007KT P6SM FEW250
NOTAMs
Click for the latest NOTAMs
NOTAMs are issued by the DoD/FAA and will open in a separate window not controlled by AirNav.

 

 
 

Would you like to see your business listed on this page?

 If your business provides an interesting product or service to pilots, flight crews, aircraft, or users of the Rafter J Airport, you should consider listing it here.  To start the listing process, click on the button below
 
Add a business
 

Other Pages about Rafter J Airport

Update a link
 
Copyright © AirNav, LLC. All rights reserved. Privacy Policy  Contact